sensor_id;sensor_type;location;lat;lon;timestamp;temperature;humidity
44990;DHT22;30723;51.206;3.326;2023-11-21T00:01:22;9.40;99.90
44990;DHT22;30723;51.206;3.326;2023-11-21T00:03:48;9.40;99.90
44990;DHT22;30723;51.206;3.326;2023-11-21T00:06:14;9.40;99.90
44990;DHT22;30723;51.206;3.326;2023-11-21T00:08:40;9.40;99.90
44990;DHT22;30723;51.206;3.326;2023-11-21T00:11:05;9.50;99.90
44990;DHT22;30723;51.206;3.326;2023-11-21T00:13:32;9.50;99.90
44990;DHT22;30723;51.206;3.326;2023-11-21T00:15:58;9.50;99.90
44990;DHT22;30723;51.206;3.326;2023-11-21T00:18:24;9.50;99.90
44990;DHT22;30723;51.206;3.326;2023-11-21T00:20:50;9.50;99.90
44990;DHT22;30723;51.206;3.326;2023-11-21T00:23:15;9.50;99.90
44990;DHT22;30723;51.206;3.326;2023-11-21T00:25:41;9.50;99.90
44990;DHT22;30723;51.206;3.326;2023-11-21T00:28:07;9.50;99.90
44990;DHT22;30723;51.206;3.326;2023-11-21T00:30:33;9.60;99.90
44990;DHT22;30723;51.206;3.326;2023-11-21T00:32:59;9.60;99.90
44990;DHT22;30723;51.206;3.326;2023-11-21T00:35:25;9.70;99.90
44990;DHT22;30723;51.206;3.326;2023-11-21T00:37:51;9.70;99.90
44990;DHT22;30723;51.206;3.326;2023-11-21T00:40:17;9.70;99.90
44990;DHT22;30723;51.206;3.326;2023-11-21T00:42:47;9.80;99.90
44990;DHT22;30723;51.206;3.326;2023-11-21T00:45:13;9.70;99.90
44990;DHT22;30723;51.206;3.326;2023-11-21T00:47:39;9.80;99.90
44990;DHT22;30723;51.206;3.326;2023-11-21T00:50:05;9.80;99.90
44990;DHT22;30723;51.206;3.326;2023-11-21T00:52:34;9.80;99.90
44990;DHT22;30723;51.206;3.326;2023-11-21T00:55:03;9.80;99.90
44990;DHT22;30723;51.206;3.326;2023-11-21T00:57:29;9.80;99.90
44990;DHT22;30723;51.206;3.326;2023-11-21T00:59:55;9.80;99.90
44990;DHT22;30723;51.206;3.326;2023-11-21T01:02:20;9.80;99.90
44990;DHT22;30723;51.206;3.326;2023-11-21T01:04:46;9.80;99.90
44990;DHT22;30723;51.206;3.326;2023-11-21T01:07:13;9.80;99.90
44990;DHT22;30723;51.206;3.326;2023-11-21T01:09:39;9.90;99.90
44990;DHT22;30723;51.206;3.326;2023-11-21T01:12:05;9.90;99.90
44990;DHT22;30723;51.206;3.326;2023-11-21T01:14:30;9.90;99.90
44990;DHT22;30723;51.206;3.326;2023-11-21T01:16:56;9.90;99.90
44990;DHT22;30723;51.206;3.326;2023-11-21T01:19:22;9.90;99.90
44990;DHT22;30723;51.206;3.326;2023-11-21T01:21:48;9.90;99.90
44990;DHT22;30723;51.206;3.326;2023-11-21T01:24:14;10.00;99.90
44990;DHT22;30723;51.206;3.326;2023-11-21T01:26:39;10.10;99.90
44990;DHT22;30723;51.206;3.326;2023-11-21T01:29:05;10.20;99.90
44990;DHT22;30723;51.206;3.326;2023-11-21T01:31:31;10.30;99.90
44990;DHT22;30723;51.206;3.326;2023-11-21T01:33:57;10.30;99.90
44990;DHT22;30723;51.206;3.326;2023-11-21T01:36:23;10.40;99.90
44990;DHT22;30723;51.206;3.326;2023-11-21T01:38:48;10.50;99.90
44990;DHT22;30723;51.206;3.326;2023-11-21T01:41:14;10.50;99.90
44990;DHT22;30723;51.206;3.326;2023-11-21T01:43:41;10.40;99.90
44990;DHT22;30723;51.206;3.326;2023-11-21T01:46:08;10.50;99.90
44990;DHT22;30723;51.206;3.326;2023-11-21T01:48:34;10.40;99.90
44990;DHT22;30723;51.206;3.326;2023-11-21T01:51:01;10.60;99.90
44990;DHT22;30723;51.206;3.326;2023-11-21T01:53:27;10.60;99.90
44990;DHT22;30723;51.206;3.326;2023-11-21T01:55:55;10.70;99.90
44990;DHT22;30723;51.206;3.326;2023-11-21T01:58:21;10.60;99.90
44990;DHT22;30723;51.206;3.326;2023-11-21T02:00:47;10.50;99.90
44990;DHT22;30723;51.206;3.326;2023-11-21T02:03:16;10.60;99.90
44990;DHT22;30723;51.206;3.326;2023-11-21T02:05:42;10.60;99.90
44990;DHT22;30723;51.206;3.326;2023-11-21T02:08:08;10.80;99.90
44990;DHT22;30723;51.206;3.326;2023-11-21T02:10:35;10.80;99.90
44990;DHT22;30723;51.206;3.326;2023-11-21T02:13:02;10.80;99.90
44990;DHT22;30723;51.206;3.326;2023-11-21T02:15:29;10.80;99.90
44990;DHT22;30723;51.206;3.326;2023-11-21T02:17:55;10.80;99.90
44990;DHT22;30723;51.206;3.326;2023-11-21T02:20:22;10.80;99.90
44990;DHT22;30723;51.206;3.326;2023-11-21T02:22:56;10.90;99.90
44990;DHT22;30723;51.206;3.326;2023-11-21T02:25:26;10.80;99.90
44990;DHT22;30723;51.206;3.326;2023-11-21T02:27:54;10.80;99.90
44990;DHT22;30723;51.206;3.326;2023-11-21T02:30:23;10.80;99.90
44990;DHT22;30723;51.206;3.326;2023-11-21T02:32:51;10.80;99.90
44990;DHT22;30723;51.206;3.326;2023-11-21T02:35:20;10.80;99.90
44990;DHT22;30723;51.206;3.326;2023-11-21T02:37:47;10.80;99.90
44990;DHT22;30723;51.206;3.326;2023-11-21T02:40:13;10.80;99.90
44990;DHT22;30723;51.206;3.326;2023-11-21T02:42:43;10.80;99.90
44990;DHT22;30723;51.206;3.326;2023-11-21T02:45:09;10.90;99.90
44990;DHT22;30723;51.206;3.326;2023-11-21T02:47:38;10.90;99.90
44990;DHT22;30723;51.206;3.326;2023-11-21T02:50:05;10.90;99.90
44990;DHT22;30723;51.206;3.326;2023-11-21T02:52:31;10.90;99.90
44990;DHT22;30723;51.206;3.326;2023-11-21T02:54:58;10.90;99.90
44990;DHT22;30723;51.206;3.326;2023-11-21T02:57:24;10.90;99.90
44990;DHT22;30723;51.206;3.326;2023-11-21T02:59:50;10.90;99.90
44990;DHT22;30723;51.206;3.326;2023-11-21T03:02:16;10.90;99.90
44990;DHT22;30723;51.206;3.326;2023-11-21T03:04:41;10.90;99.90
44990;DHT22;30723;51.206;3.326;2023-11-21T03:07:09;10.90;99.90
44990;DHT22;30723;51.206;3.326;2023-11-21T03:09:35;11.00;99.90
44990;DHT22;30723;51.206;3.326;2023-11-21T03:12:01;10.90;99.90
44990;DHT22;30723;51.206;3.326;2023-11-21T03:14:27;11.00;99.90
44990;DHT22;30723;51.206;3.326;2023-11-21T03:16:53;10.90;99.90
44990;DHT22;30723;51.206;3.326;2023-11-21T03:19:18;10.90;99.90
44990;DHT22;30723;51.206;3.326;2023-11-21T03:21:44;10.90;99.90
44990;DHT22;30723;51.206;3.326;2023-11-21T03:24:10;10.80;99.90
44990;DHT22;30723;51.206;3.326;2023-11-21T03:26:36;10.80;99.90
44990;DHT22;30723;51.206;3.326;2023-11-21T03:29:03;10.80;99.90
44990;DHT22;30723;51.206;3.326;2023-11-21T03:31:30;10.80;99.90
44990;DHT22;30723;51.206;3.326;2023-11-21T03:33:57;10.80;99.90
44990;DHT22;30723;51.206;3.326;2023-11-21T03:36:22;10.80;99.90
44990;DHT22;30723;51.206;3.326;2023-11-21T03:38:50;10.80;99.90
44990;DHT22;30723;51.206;3.326;2023-11-21T03:41:16;10.80;99.90
44990;DHT22;30723;51.206;3.326;2023-11-21T03:43:42;10.80;99.90
44990;DHT22;30723;51.206;3.326;2023-11-21T03:46:07;10.80;99.90
44990;DHT22;30723;51.206;3.326;2023-11-21T03:48:33;10.80;99.90
44990;DHT22;30723;51.206;3.326;2023-11-21T03:50:59;10.90;99.90
44990;DHT22;30723;51.206;3.326;2023-11-21T03:53:25;10.80;99.90
44990;DHT22;30723;51.206;3.326;2023-11-21T03:55:50;10.90;99.90
44990;DHT22;30723;51.206;3.326;2023-11-21T03:58:16;10.80;99.90
44990;DHT22;30723;51.206;3.326;2023-11-21T04:00:42;10.90;99.90
44990;DHT22;30723;51.206;3.326;2023-11-21T04:03:07;10.90;99.90
44990;DHT22;30723;51.206;3.326;2023-11-21T04:05:33;10.90;99.90
44990;DHT22;30723;51.206;3.326;2023-11-21T04:07:59;10.90;99.90
44990;DHT22;30723;51.206;3.326;2023-11-21T04:10:25;10.90;99.90
44990;DHT22;30723;51.206;3.326;2023-11-21T04:12:50;10.90;99.90
44990;DHT22;30723;51.206;3.326;2023-11-21T04:15:16;10.80;99.90
44990;DHT22;30723;51.206;3.326;2023-11-21T04:17:42;10.80;99.90
44990;DHT22;30723;51.206;3.326;2023-11-21T04:20:09;10.80;99.90
44990;DHT22;30723;51.206;3.326;2023-11-21T04:22:41;10.80;99.90
44990;DHT22;30723;51.206;3.326;2023-11-21T04:25:13;10.80;99.90
44990;DHT22;30723;51.206;3.326;2023-11-21T04:27:43;10.80;99.90
44990;DHT22;30723;51.206;3.326;2023-11-21T04:30:10;10.80;99.90
44990;DHT22;30723;51.206;3.326;2023-11-21T04:32:36;10.80;99.90
44990;DHT22;30723;51.206;3.326;2023-11-21T04:35:02;10.70;99.90
44990;DHT22;30723;51.206;3.326;2023-11-21T04:37:27;10.70;99.90
44990;DHT22;30723;51.206;3.326;2023-11-21T04:39:53;10.70;99.90
44990;DHT22;30723;51.206;3.326;2023-11-21T04:42:19;10.60;99.90
44990;DHT22;30723;51.206;3.326;2023-11-21T04:44:45;10.50;99.90
44990;DHT22;30723;51.206;3.326;2023-11-21T04:47:10;10.50;99.90
44990;DHT22;30723;51.206;3.326;2023-11-21T04:49:36;10.50;99.90
44990;DHT22;30723;51.206;3.326;2023-11-21T04:52:02;10.50;99.90
44990;DHT22;30723;51.206;3.326;2023-11-21T04:54:30;10.40;99.90
44990;DHT22;30723;51.206;3.326;2023-11-21T04:56:56;10.40;99.90
44990;DHT22;30723;51.206;3.326;2023-11-21T04:59:22;10.30;99.90
44990;DHT22;30723;51.206;3.326;2023-11-21T05:01:50;10.30;99.90
44990;DHT22;30723;51.206;3.326;2023-11-21T05:04:16;10.20;99.90
44990;DHT22;30723;51.206;3.326;2023-11-21T05:06:42;10.10;99.90
44990;DHT22;30723;51.206;3.326;2023-11-21T05:09:07;10.10;99.90
44990;DHT22;30723;51.206;3.326;2023-11-21T05:11:37;10.00;99.90
44990;DHT22;30723;51.206;3.326;2023-11-21T05:14:04;10.00;99.90
44990;DHT22;30723;51.206;3.326;2023-11-21T05:16:31;10.00;99.90
44990;DHT22;30723;51.206;3.326;2023-11-21T05:18:57;10.00;99.90
44990;DHT22;30723;51.206;3.326;2023-11-21T05:21:28;10.10;99.90
44990;DHT22;30723;51.206;3.326;2023-11-21T05:23:58;10.10;99.90
44990;DHT22;30723;51.206;3.326;2023-11-21T05:26:24;10.10;99.90
44990;DHT22;30723;51.206;3.326;2023-11-21T05:28:49;10.10;99.90
44990;DHT22;30723;51.206;3.326;2023-11-21T05:31:15;10.10;99.90
44990;DHT22;30723;51.206;3.326;2023-11-21T05:33:41;10.10;99.90
44990;DHT22;30723;51.206;3.326;2023-11-21T05:36:07;10.10;99.90
44990;DHT22;30723;51.206;3.326;2023-11-21T05:38:35;10.10;99.90
44990;DHT22;30723;51.206;3.326;2023-11-21T05:41:01;10.10;99.90
44990;DHT22;30723;51.206;3.326;2023-11-21T05:43:27;10.10;99.90
44990;DHT22;30723;51.206;3.326;2023-11-21T05:45:56;10.10;99.90
44990;DHT22;30723;51.206;3.326;2023-11-21T05:48:22;10.10;99.90
44990;DHT22;30723;51.206;3.326;2023-11-21T05:50:48;10.20;99.90
44990;DHT22;30723;51.206;3.326;2023-11-21T05:53:15;10.20;99.90
44990;DHT22;30723;51.206;3.326;2023-11-21T05:55:41;10.20;99.90
44990;DHT22;30723;51.206;3.326;2023-11-21T05:58:08;10.10;99.90
44990;DHT22;30723;51.206;3.326;2023-11-21T06:00:34;10.10;99.90
44990;DHT22;30723;51.206;3.326;2023-11-21T06:03:00;10.10;99.90
44990;DHT22;30723;51.206;3.326;2023-11-21T06:05:26;10.10;99.90
44990;DHT22;30723;51.206;3.326;2023-11-21T06:07:55;10.10;99.90
44990;DHT22;30723;51.206;3.326;2023-11-21T06:10:25;10.10;99.90
44990;DHT22;30723;51.206;3.326;2023-11-21T06:12:51;10.20;99.90
44990;DHT22;30723;51.206;3.326;2023-11-21T06:15:17;10.20;99.90
44990;DHT22;30723;51.206;3.326;2023-11-21T06:17:44;10.20;99.90
44990;DHT22;30723;51.206;3.326;2023-11-21T06:20:14;10.20;99.90
44990;DHT22;30723;51.206;3.326;2023-11-21T06:22:42;10.20;99.90
44990;DHT22;30723;51.206;3.326;2023-11-21T06:25:08;10.20;99.90
44990;DHT22;30723;51.206;3.326;2023-11-21T06:27:39;10.30;99.90
44990;DHT22;30723;51.206;3.326;2023-11-21T06:30:06;10.30;99.90
44990;DHT22;30723;51.206;3.326;2023-11-21T06:32:33;10.40;99.90
44990;DHT22;30723;51.206;3.326;2023-11-21T06:35:00;10.40;99.90
44990;DHT22;30723;51.206;3.326;2023-11-21T06:37:27;10.50;99.90
44990;DHT22;30723;51.206;3.326;2023-11-21T06:39:53;10.50;99.90
44990;DHT22;30723;51.206;3.326;2023-11-21T06:42:19;10.50;99.90
44990;DHT22;30723;51.206;3.326;2023-11-21T06:44:46;10.50;99.90
44990;DHT22;30723;51.206;3.326;2023-11-21T06:47:11;10.50;99.90
44990;DHT22;30723;51.206;3.326;2023-11-21T06:49:37;10.50;99.90
44990;DHT22;30723;51.206;3.326;2023-11-21T06:52:04;10.50;99.90
44990;DHT22;30723;51.206;3.326;2023-11-21T06:54:31;10.50;99.90
44990;DHT22;30723;51.206;3.326;2023-11-21T06:56:58;10.40;99.90
44990;DHT22;30723;51.206;3.326;2023-11-21T06:59:24;10.40;99.90
44990;DHT22;30723;51.206;3.326;2023-11-21T07:01:50;10.50;99.90
44990;DHT22;30723;51.206;3.326;2023-11-21T07:04:16;10.60;99.90
44990;DHT22;30723;51.206;3.326;2023-11-21T07:06:42;10.60;99.90
44990;DHT22;30723;51.206;3.326;2023-11-21T07:09:09;10.50;99.90
44990;DHT22;30723;51.206;3.326;2023-11-21T07:11:37;10.50;99.90
44990;DHT22;30723;51.206;3.326;2023-11-21T07:14:04;10.60;99.90
44990;DHT22;30723;51.206;3.326;2023-11-21T07:16:39;10.60;99.90
44990;DHT22;30723;51.206;3.326;2023-11-21T07:19:04;10.60;99.90
44990;DHT22;30723;51.206;3.326;2023-11-21T07:21:32;10.50;99.90
44990;DHT22;30723;51.206;3.326;2023-11-21T07:23:59;10.60;99.90
44990;DHT22;30723;51.206;3.326;2023-11-21T07:26:26;10.50;99.90
44990;DHT22;30723;51.206;3.326;2023-11-21T07:28:53;10.40;99.90
44990;DHT22;30723;51.206;3.326;2023-11-21T07:31:19;10.40;99.90
44990;DHT22;30723;51.206;3.326;2023-11-21T07:33:45;10.30;99.90
44990;DHT22;30723;51.206;3.326;2023-11-21T07:36:13;10.30;99.90
44990;DHT22;30723;51.206;3.326;2023-11-21T07:38:39;10.30;99.90
44990;DHT22;30723;51.206;3.326;2023-11-21T07:41:05;10.30;99.90
44990;DHT22;30723;51.206;3.326;2023-11-21T07:43:34;10.30;99.90
44990;DHT22;30723;51.206;3.326;2023-11-21T07:46:04;10.30;99.90
44990;DHT22;30723;51.206;3.326;2023-11-21T07:48:34;10.40;99.90
44990;DHT22;30723;51.206;3.326;2023-11-21T07:51:01;10.50;99.90
44990;DHT22;30723;51.206;3.326;2023-11-21T07:53:29;10.50;99.90
44990;DHT22;30723;51.206;3.326;2023-11-21T07:56:05;10.50;99.90
44990;DHT22;30723;51.206;3.326;2023-11-21T07:58:31;10.70;99.90
44990;DHT22;30723;51.206;3.326;2023-11-21T08:00:59;10.80;99.90
44990;DHT22;30723;51.206;3.326;2023-11-21T08:03:25;10.80;99.90
44990;DHT22;30723;51.206;3.326;2023-11-21T08:05:52;10.90;99.90
44990;DHT22;30723;51.206;3.326;2023-11-21T08:08:18;10.90;99.90
44990;DHT22;30723;51.206;3.326;2023-11-21T08:10:45;11.00;99.90
44990;DHT22;30723;51.206;3.326;2023-11-21T08:13:14;11.00;99.90
44990;DHT22;30723;51.206;3.326;2023-11-21T08:15:41;11.00;99.90
44990;DHT22;30723;51.206;3.326;2023-11-21T08:18:11;11.10;99.90
44990;DHT22;30723;51.206;3.326;2023-11-21T08:20:38;11.00;99.90
44990;DHT22;30723;51.206;3.326;2023-11-21T08:24:29;11.00;99.90
44990;DHT22;30723;51.206;3.326;2023-11-21T08:26:55;11.00;99.90
44990;DHT22;30723;51.206;3.326;2023-11-21T08:29:22;10.90;99.90
44990;DHT22;30723;51.206;3.326;2023-11-21T08:31:48;10.90;99.90
44990;DHT22;30723;51.206;3.326;2023-11-21T08:34:14;10.80;99.90
44990;DHT22;30723;51.206;3.326;2023-11-21T08:36:43;10.80;99.90
44990;DHT22;30723;51.206;3.326;2023-11-21T08:39:09;10.90;99.90
44990;DHT22;30723;51.206;3.326;2023-11-21T08:41:36;11.00;99.90
44990;DHT22;30723;51.206;3.326;2023-11-21T08:44:02;11.20;99.90
44990;DHT22;30723;51.206;3.326;2023-11-21T08:46:33;11.40;99.90
44990;DHT22;30723;51.206;3.326;2023-11-21T08:49:01;11.50;99.90
44990;DHT22;30723;51.206;3.326;2023-11-21T08:51:26;11.60;99.90
44990;DHT22;30723;51.206;3.326;2023-11-21T08:53:52;11.60;99.90
44990;DHT22;30723;51.206;3.326;2023-11-21T08:56:18;11.70;99.90
44990;DHT22;30723;51.206;3.326;2023-11-21T08:58:46;11.70;99.90
44990;DHT22;30723;51.206;3.326;2023-11-21T09:01:16;11.80;99.90
44990;DHT22;30723;51.206;3.326;2023-11-21T09:03:42;11.90;99.90
44990;DHT22;30723;51.206;3.326;2023-11-21T09:06:09;11.80;99.90
44990;DHT22;30723;51.206;3.326;2023-11-21T09:08:35;11.90;99.90
44990;DHT22;30723;51.206;3.326;2023-11-21T09:11:01;12.00;99.90
44990;DHT22;30723;51.206;3.326;2023-11-21T09:13:28;12.10;99.90
44990;DHT22;30723;51.206;3.326;2023-11-21T09:15:55;12.30;99.90
44990;DHT22;30723;51.206;3.326;2023-11-21T09:18:20;12.40;99.90
44990;DHT22;30723;51.206;3.326;2023-11-21T09:20:46;12.50;99.90
44990;DHT22;30723;51.206;3.326;2023-11-21T09:23:12;12.60;99.90
44990;DHT22;30723;51.206;3.326;2023-11-21T09:25:38;12.50;99.90
44990;DHT22;30723;51.206;3.326;2023-11-21T09:28:05;12.40;99.90
44990;DHT22;30723;51.206;3.326;2023-11-21T09:30:34;12.20;99.90
44990;DHT22;30723;51.206;3.326;2023-11-21T09:33:01;12.00;99.90
44990;DHT22;30723;51.206;3.326;2023-11-21T09:35:27;11.90;99.90
44990;DHT22;30723;51.206;3.326;2023-11-21T09:37:53;11.90;99.90
44990;DHT22;30723;51.206;3.326;2023-11-21T09:40:21;12.00;99.90
44990;DHT22;30723;51.206;3.326;2023-11-21T09:42:57;12.00;99.90
44990;DHT22;30723;51.206;3.326;2023-11-21T09:45:34;12.00;99.90
44990;DHT22;30723;51.206;3.326;2023-11-21T09:48:01;12.20;99.90
44990;DHT22;30723;51.206;3.326;2023-11-21T09:50:27;12.20;99.90
44990;DHT22;30723;51.206;3.326;2023-11-21T09:53:19;12.30;99.90
44990;DHT22;30723;51.206;3.326;2023-11-21T09:55:53;12.20;99.90
44990;DHT22;30723;51.206;3.326;2023-11-21T09:58:20;12.20;99.90
44990;DHT22;30723;51.206;3.326;2023-11-21T10:00:48;12.30;99.90
44990;DHT22;30723;51.206;3.326;2023-11-21T10:03:14;12.30;99.90
44990;DHT22;30723;51.206;3.326;2023-11-21T10:05:43;12.40;99.90
44990;DHT22;30723;51.206;3.326;2023-11-21T10:08:11;12.30;99.90
44990;DHT22;30723;51.206;3.326;2023-11-21T10:10:38;12.40;99.90
44990;DHT22;30723;51.206;3.326;2023-11-21T10:13:09;12.50;99.90
44990;DHT22;30723;51.206;3.326;2023-11-21T10:15:36;12.60;99.90
44990;DHT22;30723;51.206;3.326;2023-11-21T10:18:03;12.60;99.90
44990;DHT22;30723;51.206;3.326;2023-11-21T10:20:30;12.70;99.90
44990;DHT22;30723;51.206;3.326;2023-11-21T10:22:57;13.00;99.90
44990;DHT22;30723;51.206;3.326;2023-11-21T10:25:22;13.20;99.90
44990;DHT22;30723;51.206;3.326;2023-11-21T10:27:49;13.20;99.90
44990;DHT22;30723;51.206;3.326;2023-11-21T10:30:18;13.30;99.90
44990;DHT22;30723;51.206;3.326;2023-11-21T10:32:44;13.20;99.90
44990;DHT22;30723;51.206;3.326;2023-11-21T10:35:10;13.30;99.90
44990;DHT22;30723;51.206;3.326;2023-11-21T10:37:39;13.30;99.90
44990;DHT22;30723;51.206;3.326;2023-11-21T10:40:09;13.30;99.90
44990;DHT22;30723;51.206;3.326;2023-11-21T10:42:40;13.20;99.90
44990;DHT22;30723;51.206;3.326;2023-11-21T10:45:08;13.30;99.90
44990;DHT22;30723;51.206;3.326;2023-11-21T10:47:40;13.60;99.90
44990;DHT22;30723;51.206;3.326;2023-11-21T10:50:07;13.60;99.90
44990;DHT22;30723;51.206;3.326;2023-11-21T10:52:37;13.60;99.90
44990;DHT22;30723;51.206;3.326;2023-11-21T10:55:25;13.60;99.90
44990;DHT22;30723;51.206;3.326;2023-11-21T10:57:53;13.40;99.90
44990;DHT22;30723;51.206;3.326;2023-11-21T11:00:20;13.70;99.90
44990;DHT22;30723;51.206;3.326;2023-11-21T11:02:51;14.40;99.90
44990;DHT22;30723;51.206;3.326;2023-11-21T11:05:19;15.50;99.90
44990;DHT22;30723;51.206;3.326;2023-11-21T11:07:48;16.00;99.90
44990;DHT22;30723;51.206;3.326;2023-11-21T11:10:22;16.20;99.90
44990;DHT22;30723;51.206;3.326;2023-11-21T11:12:51;16.80;99.90
44990;DHT22;30723;51.206;3.326;2023-11-21T11:15:19;17.40;99.90
44990;DHT22;30723;51.206;3.326;2023-11-21T11:17:46;18.20;99.90
44990;DHT22;30723;51.206;3.326;2023-11-21T11:20:16;18.70;99.90
44990;DHT22;30723;51.206;3.326;2023-11-21T11:26:11;17.20;99.90
44990;DHT22;30723;51.206;3.326;2023-11-21T11:34:29;15.80;99.90
44990;DHT22;30723;51.206;3.326;2023-11-21T11:37:04;16.60;99.90
44990;DHT22;30723;51.206;3.326;2023-11-21T11:41:58;18.90;99.90
44990;DHT22;30723;51.206;3.326;2023-11-21T11:44:47;20.50;99.90
44990;DHT22;30723;51.206;3.326;2023-11-21T11:47:22;21.60;99.90
44990;DHT22;30723;51.206;3.326;2023-11-21T11:49:58;22.00;99.90
44990;DHT22;30723;51.206;3.326;2023-11-21T11:52:51;22.60;99.90
44990;DHT22;30723;51.206;3.326;2023-11-21T11:55:20;21.90;99.90
44990;DHT22;30723;51.206;3.326;2023-11-21T11:57:54;21.50;99.90
44990;DHT22;30723;51.206;3.326;2023-11-21T12:03:01;21.00;99.90
44990;DHT22;30723;51.206;3.326;2023-11-21T12:05:29;19.40;99.90
44990;DHT22;30723;51.206;3.326;2023-11-21T12:08:03;18.40;99.90
44990;DHT22;30723;51.206;3.326;2023-11-21T12:10:31;17.50;99.90
44990;DHT22;30723;51.206;3.326;2023-11-21T12:12:58;16.80;99.90
44990;DHT22;30723;51.206;3.326;2023-11-21T12:15:25;16.10;99.90
44990;DHT22;30723;51.206;3.326;2023-11-21T12:17:52;15.70;99.90
44990;DHT22;30723;51.206;3.326;2023-11-21T12:20:23;15.50;99.90
44990;DHT22;30723;51.206;3.326;2023-11-21T12:22:50;15.50;99.90
44990;DHT22;30723;51.206;3.326;2023-11-21T12:25:18;16.60;99.90
44990;DHT22;30723;51.206;3.326;2023-11-21T12:27:50;17.40;99.90
44990;DHT22;30723;51.206;3.326;2023-11-21T12:30:18;18.50;99.90
44990;DHT22;30723;51.206;3.326;2023-11-21T12:32:47;18.40;99.90
44990;DHT22;30723;51.206;3.326;2023-11-21T12:35:14;18.60;99.90
44990;DHT22;30723;51.206;3.326;2023-11-21T12:37:41;18.90;99.90
44990;DHT22;30723;51.206;3.326;2023-11-21T12:40:10;20.00;99.90
44990;DHT22;30723;51.206;3.326;2023-11-21T12:42:41;20.80;99.90
44990;DHT22;30723;51.206;3.326;2023-11-21T12:48:02;21.60;99.90
44990;DHT22;30723;51.206;3.326;2023-11-21T12:50:33;22.20;99.90
44990;DHT22;30723;51.206;3.326;2023-11-21T12:53:07;22.90;99.90
44990;DHT22;30723;51.206;3.326;2023-11-21T12:55:38;21.80;99.90
44990;DHT22;30723;51.206;3.326;2023-11-21T12:58:08;19.90;99.90
44990;DHT22;30723;51.206;3.326;2023-11-21T13:03:06;17.70;99.90
44990;DHT22;30723;51.206;3.326;2023-11-21T13:05:34;16.50;99.90
44990;DHT22;30723;51.206;3.326;2023-11-21T13:08:02;16.00;99.90
44990;DHT22;30723;51.206;3.326;2023-11-21T13:10:31;15.50;99.90
44990;DHT22;30723;51.206;3.326;2023-11-21T13:13:01;15.00;99.90
44990;DHT22;30723;51.206;3.326;2023-11-21T13:15:31;14.50;99.90
44990;DHT22;30723;51.206;3.326;2023-11-21T13:17:58;14.20;99.90
44990;DHT22;30723;51.206;3.326;2023-11-21T13:20:25;14.00;99.90
44990;DHT22;30723;51.206;3.326;2023-11-21T13:22:52;13.80;99.90
44990;DHT22;30723;51.206;3.326;2023-11-21T13:25:29;13.70;99.90
44990;DHT22;30723;51.206;3.326;2023-11-21T13:27:58;13.50;99.90
44990;DHT22;30723;51.206;3.326;2023-11-21T13:30:27;13.30;99.90
44990;DHT22;30723;51.206;3.326;2023-11-21T13:33:00;13.20;99.90
44990;DHT22;30723;51.206;3.326;2023-11-21T13:35:32;13.10;99.90
44990;DHT22;30723;51.206;3.326;2023-11-21T13:38:05;13.10;99.90
44990;DHT22;30723;51.206;3.326;2023-11-21T13:40:32;13.10;99.90
44990;DHT22;30723;51.206;3.326;2023-11-21T13:43:00;13.10;99.90
44990;DHT22;30723;51.206;3.326;2023-11-21T13:45:30;13.00;99.90
44990;DHT22;30723;51.206;3.326;2023-11-21T13:47:56;13.00;99.90
44990;DHT22;30723;51.206;3.326;2023-11-21T13:50:27;12.90;99.90
44990;DHT22;30723;51.206;3.326;2023-11-21T13:53:01;12.80;99.90
44990;DHT22;30723;51.206;3.326;2023-11-21T13:55:51;12.70;99.90
44990;DHT22;30723;51.206;3.326;2023-11-21T13:58:20;12.60;99.90
44990;DHT22;30723;51.206;3.326;2023-11-21T14:01:00;12.60;99.90
44990;DHT22;30723;51.206;3.326;2023-11-21T14:03:27;12.50;99.90
44990;DHT22;30723;51.206;3.326;2023-11-21T14:06:05;12.50;99.90
44990;DHT22;30723;51.206;3.326;2023-11-21T14:08:40;12.50;99.90
44990;DHT22;30723;51.206;3.326;2023-11-21T14:11:07;12.50;99.90
44990;DHT22;30723;51.206;3.326;2023-11-21T14:13:33;12.50;99.90
44990;DHT22;30723;51.206;3.326;2023-11-21T14:15:59;12.50;99.90
44990;DHT22;30723;51.206;3.326;2023-11-21T14:18:27;12.40;99.90
44990;DHT22;30723;51.206;3.326;2023-11-21T14:20:58;12.40;99.90
44990;DHT22;30723;51.206;3.326;2023-11-21T14:23:23;12.30;99.90
44990;DHT22;30723;51.206;3.326;2023-11-21T14:25:49;12.30;99.90
44990;DHT22;30723;51.206;3.326;2023-11-21T14:28:16;12.30;99.90
44990;DHT22;30723;51.206;3.326;2023-11-21T14:30:42;12.30;99.90
44990;DHT22;30723;51.206;3.326;2023-11-21T14:33:08;12.30;99.90
44990;DHT22;30723;51.206;3.326;2023-11-21T14:35:35;12.30;99.90
44990;DHT22;30723;51.206;3.326;2023-11-21T14:38:02;12.20;99.90
44990;DHT22;30723;51.206;3.326;2023-11-21T14:40:31;12.20;99.90
44990;DHT22;30723;51.206;3.326;2023-11-21T14:42:59;12.10;99.90
44990;DHT22;30723;51.206;3.326;2023-11-21T14:45:25;12.00;99.90
44990;DHT22;30723;51.206;3.326;2023-11-21T14:47:52;11.90;99.90
44990;DHT22;30723;51.206;3.326;2023-11-21T14:50:35;11.90;99.90
44990;DHT22;30723;51.206;3.326;2023-11-21T14:53:04;11.90;99.90
44990;DHT22;30723;51.206;3.326;2023-11-21T14:55:34;11.80;99.90
44990;DHT22;30723;51.206;3.326;2023-11-21T14:58:18;11.80;99.90
44990;DHT22;30723;51.206;3.326;2023-11-21T15:00:53;11.70;99.90
44990;DHT22;30723;51.206;3.326;2023-11-21T15:03:27;11.70;99.90
44990;DHT22;30723;51.206;3.326;2023-11-21T15:05:56;11.60;99.90
44990;DHT22;30723;51.206;3.326;2023-11-21T15:08:22;11.70;99.90
44990;DHT22;30723;51.206;3.326;2023-11-21T15:10:58;11.60;99.90
44990;DHT22;30723;51.206;3.326;2023-11-21T15:13:24;11.60;99.90
44990;DHT22;30723;51.206;3.326;2023-11-21T15:15:52;11.60;99.90
44990;DHT22;30723;51.206;3.326;2023-11-21T15:18:20;11.60;99.90
44990;DHT22;30723;51.206;3.326;2023-11-21T15:20:46;11.60;99.90
44990;DHT22;30723;51.206;3.326;2023-11-21T15:23:12;11.50;99.90
44990;DHT22;30723;51.206;3.326;2023-11-21T15:25:42;11.50;99.90
44990;DHT22;30723;51.206;3.326;2023-11-21T15:28:08;11.30;99.90
44990;DHT22;30723;51.206;3.326;2023-11-21T15:30:34;11.30;99.90
44990;DHT22;30723;51.206;3.326;2023-11-21T15:33:01;11.20;99.90
44990;DHT22;30723;51.206;3.326;2023-11-21T15:35:29;11.20;99.90
44990;DHT22;30723;51.206;3.326;2023-11-21T15:37:54;11.10;99.90
44990;DHT22;30723;51.206;3.326;2023-11-21T15:40:25;11.10;99.90
44990;DHT22;30723;51.206;3.326;2023-11-21T15:42:50;11.10;99.90
44990;DHT22;30723;51.206;3.326;2023-11-21T15:45:16;11.00;99.90
44990;DHT22;30723;51.206;3.326;2023-11-21T15:47:45;10.90;99.90
44990;DHT22;30723;51.206;3.326;2023-11-21T15:50:11;10.90;99.90
44990;DHT22;30723;51.206;3.326;2023-11-21T15:52:37;10.90;99.90
44990;DHT22;30723;51.206;3.326;2023-11-21T15:55:03;10.80;99.90
44990;DHT22;30723;51.206;3.326;2023-11-21T15:57:29;10.90;99.90